createdAt,value
2023-05-19T00:01:20.379Z,2.70
2023-05-19T00:03:59.107Z,2.70
2023-05-19T00:06:29.355Z,2.40
2023-05-19T00:09:00.272Z,2.80
2023-05-19T00:11:28.496Z,2.40
2023-05-19T00:13:57.326Z,3.10
2023-05-19T00:16:26.040Z,2.80
2023-05-19T00:18:54.329Z,2.70
2023-05-19T00:21:21.223Z,2.70
2023-05-19T00:23:48.315Z,2.70
2023-05-19T00:26:15.362Z,2.60
2023-05-19T00:28:45.196Z,2.60
2023-05-19T00:31:12.062Z,2.70
2023-05-19T00:33:39.073Z,3.10
2023-05-19T00:36:06.297Z,2.70
2023-05-19T00:38:35.374Z,2.60
2023-05-19T00:41:03.764Z,2.90
2023-05-19T00:43:30.766Z,2.70
2023-05-19T00:45:58.013Z,2.60
2023-05-19T00:48:26.548Z,2.60
2023-05-19T00:50:55.176Z,2.70
2023-05-19T00:53:23.437Z,2.60
2023-05-19T00:55:51.276Z,3.10
2023-05-19T00:58:19.258Z,2.90
2023-05-19T01:00:46.449Z,3.10
2023-05-19T01:03:13.483Z,2.80
2023-05-19T01:05:42.515Z,2.80
2023-05-19T01:08:09.633Z,3.10
2023-05-19T01:10:37.258Z,2.90
2023-05-19T01:13:06.604Z,2.90
2023-05-19T01:15:41.770Z,2.70
2023-05-19T01:18:14.359Z,3.20
2023-05-19T01:20:47.450Z,2.90
2023-05-19T01:23:28.921Z,3.00
2023-05-19T01:26:04.837Z,2.70
2023-05-19T01:28:48.738Z,2.70
2023-05-19T01:31:18.909Z,2.80
2023-05-19T01:33:47.691Z,3.00
2023-05-19T01:36:15.478Z,2.80
2023-05-19T01:38:44.345Z,3.20
2023-05-19T01:41:12.514Z,3.00
2023-05-19T01:43:40.855Z,3.10
2023-05-19T01:46:08.574Z,3.10
2023-05-19T01:48:36.132Z,3.30
2023-05-19T01:51:03.107Z,3.10
2023-05-19T01:53:30.008Z,3.00
2023-05-19T01:55:57.599Z,3.10
2023-05-19T01:58:37.864Z,3.20
2023-05-19T02:01:08.163Z,2.90
2023-05-19T02:03:46.139Z,3.60
2023-05-19T02:06:28.697Z,2.90
2023-05-19T02:08:58.354Z,3.20
2023-05-19T02:11:25.207Z,2.80
2023-05-19T02:13:56.964Z,3.10
2023-05-19T02:16:28.873Z,3.30
2023-05-19T02:18:56.607Z,2.90
2023-05-19T02:21:23.573Z,3.10
2023-05-19T02:23:50.821Z,2.90
2023-05-19T02:26:19.986Z,3.00
2023-05-19T02:28:46.945Z,2.60
2023-05-19T02:31:14.059Z,3.10
2023-05-19T02:33:41.470Z,2.90
2023-05-19T02:36:10.160Z,2.90
2023-05-19T02:38:37.727Z,3.30
2023-05-19T02:41:04.585Z,2.90
2023-05-19T02:43:31.620Z,2.80
2023-05-19T02:45:58.480Z,2.90
2023-05-19T02:48:26.693Z,3.20
2023-05-19T02:50:53.624Z,2.70
2023-05-19T02:53:20.504Z,3.50
2023-05-19T02:55:47.387Z,3.00
2023-05-19T02:58:14.448Z,3.40
2023-05-19T03:00:41.394Z,3.20
2023-05-19T03:03:10.560Z,3.30
2023-05-19T03:05:37.755Z,3.20
2023-05-19T03:08:04.771Z,3.00
2023-05-19T03:10:31.792Z,3.60
2023-05-19T03:12:58.930Z,2.90
2023-05-19T03:15:25.837Z,3.50
2023-05-19T03:17:52.791Z,3.50
2023-05-19T03:20:19.946Z,3.70
2023-05-19T03:22:46.866Z,3.70
2023-05-19T03:25:13.999Z,3.40
2023-05-19T03:27:42.458Z,3.90
2023-05-19T03:30:13.786Z,4.10
2023-05-19T03:32:52.709Z,4.20
2023-05-19T03:35:19.877Z,4.00
2023-05-19T03:37:46.802Z,3.60
2023-05-19T03:40:14.308Z,3.70
2023-05-19T03:42:42.157Z,4.00
2023-05-19T03:45:09.272Z,3.60
2023-05-19T03:47:36.212Z,3.90
2023-05-19T03:50:23.443Z,3.70
2023-05-19T03:52:56.676Z,3.00
2023-05-19T03:55:31.517Z,3.20
2023-05-19T03:57:58.410Z,3.70
2023-05-19T04:00:25.331Z,3.30
2023-05-19T04:02:52.410Z,3.90
2023-05-19T04:05:19.323Z,3.10
2023-05-19T04:07:46.925Z,3.40
2023-05-19T04:10:14.367Z,3.90
2023-05-19T04:12:41.263Z,4.00
2023-05-19T04:15:11.588Z,5.50
2023-05-19T04:17:39.561Z,5.70
2023-05-19T04:20:07.053Z,4.70
2023-05-19T04:22:34.167Z,3.50
2023-05-19T04:25:01.828Z,3.20
2023-05-19T04:27:30.160Z,8.50
2023-05-19T04:29:58.244Z,7.70
2023-05-19T04:32:25.970Z,5.10
2023-05-19T04:34:53.401Z,3.60
2023-05-19T04:37:24.293Z,4.00
2023-05-19T04:39:53.666Z,3.80
2023-05-19T04:42:22.492Z,4.00
2023-05-19T04:44:51.872Z,3.60
2023-05-19T04:47:21.646Z,3.70
2023-05-19T04:49:48.865Z,3.70
2023-05-19T04:52:16.244Z,3.60
2023-05-19T04:54:43.128Z,3.80
2023-05-19T04:57:12.274Z,4.10
2023-05-19T04:59:39.763Z,4.50
2023-05-19T05:02:08.529Z,3.40
2023-05-19T05:04:36.887Z,3.80
2023-05-19T05:07:03.980Z,5.20
2023-05-19T05:09:31.085Z,6.60
2023-05-19T05:11:59.260Z,6.80
2023-05-19T05:14:26.703Z,6.00
2023-05-19T05:16:54.037Z,7.10
2023-05-19T05:19:23.802Z,5.70
2023-05-19T05:21:52.154Z,4.00
2023-05-19T05:24:20.282Z,3.60
2023-05-19T05:26:51.249Z,4.10
2023-05-19T05:29:18.268Z,4.50
2023-05-19T05:31:45.237Z,4.10
2023-05-19T05:34:12.244Z,4.60
2023-05-19T05:36:39.447Z,3.60
2023-05-19T05:39:08.295Z,3.70
2023-05-19T05:41:36.169Z,4.10
2023-05-19T05:44:08.231Z,3.40
2023-05-19T05:46:35.453Z,3.50
2023-05-19T05:49:03.393Z,4.50
2023-05-19T05:51:32.995Z,4.00
2023-05-19T05:54:01.213Z,4.50
2023-05-19T05:56:33.998Z,4.50
2023-05-19T05:59:02.209Z,4.70
2023-05-19T06:01:31.869Z,4.50
2023-05-19T06:04:00.067Z,4.80
2023-05-19T06:06:27.070Z,4.20
2023-05-19T06:08:55.101Z,4.20
2023-05-19T06:11:23.184Z,4.60
2023-05-19T06:13:51.230Z,4.50
2023-05-19T06:16:35.913Z,5.10
2023-05-19T06:19:02.876Z,4.60
2023-05-19T06:21:29.851Z,4.60
2023-05-19T06:23:56.781Z,4.30
2023-05-19T06:26:24.204Z,4.40
2023-05-19T06:28:51.509Z,4.30
2023-05-19T06:31:18.460Z,4.80
2023-05-19T06:33:50.892Z,4.40
2023-05-19T06:36:17.983Z,4.90
2023-05-19T06:38:46.969Z,5.00
2023-05-19T06:41:14.324Z,4.40
2023-05-19T06:43:42.657Z,4.20
2023-05-19T06:46:14.228Z,4.20
2023-05-19T06:48:43.683Z,4.40
2023-05-19T06:51:11.642Z,5.10
2023-05-19T06:53:39.513Z,5.00
2023-05-19T06:56:08.363Z,5.80
2023-05-19T06:58:36.253Z,4.80
2023-05-19T07:01:04.551Z,5.00
2023-05-19T07:03:35.570Z,4.70
2023-05-19T07:06:05.061Z,5.10
2023-05-19T07:08:33.444Z,4.00
2023-05-19T07:11:01.445Z,4.70
2023-05-19T07:13:28.706Z,4.60
2023-05-19T07:15:55.977Z,4.60
2023-05-19T07:18:23.439Z,4.90
2023-05-19T07:20:53.961Z,5.40
2023-05-19T07:23:21.157Z,4.70
2023-05-19T07:25:49.254Z,5.30
2023-05-19T07:28:16.324Z,4.80
2023-05-19T07:30:43.499Z,5.30
2023-05-19T07:33:10.537Z,4.60
2023-05-19T07:35:37.616Z,3.90
2023-05-19T07:38:04.666Z,4.30
2023-05-19T07:40:31.679Z,4.40
2023-05-19T07:42:58.766Z,4.50
2023-05-19T07:45:26.020Z,4.20
2023-05-19T07:47:54.097Z,4.40
2023-05-19T07:50:20.984Z,4.90
2023-05-19T07:52:47.825Z,4.20
2023-05-19T07:55:15.133Z,4.00
2023-05-19T07:57:41.936Z,4.10
2023-05-19T08:00:13.593Z,3.30
2023-05-19T08:02:41.448Z,4.20
2023-05-19T08:05:09.396Z,4.70
2023-05-19T08:07:36.949Z,3.90
2023-05-19T08:10:04.654Z,4.30
2023-05-19T08:12:31.469Z,3.80
2023-05-19T08:15:00.990Z,3.80
2023-05-19T08:17:28.490Z,3.10
2023-05-19T08:19:55.333Z,3.30
2023-05-19T08:22:22.237Z,3.10
2023-05-19T08:24:49.982Z,3.70
2023-05-19T08:27:16.955Z,3.20
2023-05-19T08:29:44.237Z,3.70
2023-05-19T08:32:13.191Z,3.10
2023-05-19T08:34:41.415Z,3.70
2023-05-19T08:37:08.336Z,3.60
2023-05-19T08:39:35.338Z,3.30
2023-05-19T08:42:02.560Z,3.30
2023-05-19T08:44:30.983Z,3.10
2023-05-19T08:47:02.939Z,3.40
2023-05-19T08:49:33.291Z,3.40
2023-05-19T08:52:14.461Z,3.60
2023-05-19T08:54:50.977Z,3.40
2023-05-19T08:57:19.394Z,3.10
2023-05-19T08:59:46.288Z,3.30
2023-05-19T09:02:14.549Z,3.50
2023-05-19T09:04:46.024Z,3.10
2023-05-19T09:07:14.627Z,2.80
2023-05-19T09:09:43.968Z,3.30
2023-05-19T09:12:11.847Z,3.30
2023-05-19T09:14:38.736Z,2.60
2023-05-19T09:17:06.576Z,3.10
2023-05-19T09:19:33.595Z,3.20
2023-05-19T09:22:03.266Z,3.30
2023-05-19T09:24:30.648Z,2.90
2023-05-19T09:26:58.527Z,3.00
2023-05-19T09:29:26.821Z,3.40
2023-05-19T09:31:56.208Z,3.20
2023-05-19T09:34:25.529Z,3.90
2023-05-19T09:36:54.092Z,3.70
2023-05-19T09:39:23.295Z,3.20
2023-05-19T09:41:53.909Z,3.50
2023-05-19T09:44:21.297Z,3.20
2023-05-19T09:46:50.709Z,3.50
2023-05-19T09:49:21.188Z,3.10
2023-05-19T09:51:50.870Z,3.40
2023-05-19T09:54:20.591Z,3.40
2023-05-19T09:56:53.290Z,3.30
2023-05-19T09:59:24.087Z,4.00
2023-05-19T10:01:55.014Z,3.70
2023-05-19T10:04:23.715Z,3.10
2023-05-19T10:06:54.505Z,3.50
2023-05-19T10:09:25.114Z,3.70
2023-05-19T10:11:54.757Z,3.40
2023-05-19T10:14:24.601Z,2.80
2023-05-19T10:16:53.204Z,3.10
2023-05-19T10:19:24.893Z,3.00
2023-05-19T10:21:52.701Z,3.30
2023-05-19T10:24:21.477Z,3.20
2023-05-19T10:26:58.672Z,3.00
2023-05-19T10:29:30.303Z,3.00
2023-05-19T10:32:01.275Z,2.80
2023-05-19T10:34:59.415Z,2.70
2023-05-19T10:37:45.681Z,3.10
2023-05-19T10:40:21.925Z,3.10
2023-05-19T10:43:07.737Z,2.80
2023-05-19T10:45:46.119Z,3.00
2023-05-19T10:48:16.036Z,3.00
2023-05-19T10:50:46.251Z,3.30
2023-05-19T10:53:18.275Z,2.80
2023-05-19T10:56:04.342Z,3.00
2023-05-19T10:58:46.601Z,2.40
2023-05-19T11:01:16.618Z,3.00
2023-05-19T11:03:54.130Z,3.00
2023-05-19T11:06:38.294Z,3.10
2023-05-19T11:12:05.247Z,2.80
2023-05-19T11:14:32.755Z,2.70
2023-05-19T11:17:00.646Z,3.00
2023-05-19T11:19:30.074Z,3.20
2023-05-19T11:22:07.706Z,3.40
2023-05-19T11:24:36.774Z,3.30
2023-05-19T11:27:28.443Z,3.10
2023-05-19T11:29:59.273Z,3.10
2023-05-19T11:32:29.488Z,3.10
2023-05-19T11:34:57.874Z,3.10
2023-05-19T11:37:25.177Z,3.20
2023-05-19T11:39:53.332Z,3.00
2023-05-19T11:42:20.667Z,2.70
2023-05-19T11:44:48.034Z,2.80
2023-05-19T11:47:16.042Z,3.00
2023-05-19T11:49:45.990Z,2.60
2023-05-19T11:52:13.292Z,3.10
2023-05-19T11:54:42.088Z,3.40
2023-05-19T11:57:11.670Z,3.10
2023-05-19T11:59:40.730Z,2.80
2023-05-19T12:02:18.079Z,3.00
2023-05-19T12:04:45.582Z,3.60
2023-05-19T12:07:13.846Z,3.40
2023-05-19T12:09:40.683Z,3.60
2023-05-19T12:12:07.896Z,3.10
2023-05-19T12:14:35.932Z,3.40
2023-05-19T12:17:14.704Z,3.70
2023-05-19T12:19:43.762Z,4.10
2023-05-19T12:22:12.756Z,4.20
2023-05-19T12:24:40.401Z,4.40
2023-05-19T12:27:13.160Z,4.00
2023-05-19T12:29:41.488Z,3.90
2023-05-19T12:32:09.638Z,3.80
2023-05-19T12:34:38.318Z,4.00
2023-05-19T12:37:06.285Z,4.10
2023-05-19T12:39:34.035Z,3.20
2023-05-19T12:42:09.597Z,3.70
2023-05-19T12:44:46.956Z,3.90
2023-05-19T12:47:16.149Z,4.20
2023-05-19T12:49:59.825Z,4.40
2023-05-19T12:52:29.104Z,4.60
2023-05-19T12:55:06.698Z,4.90
2023-05-19T12:57:36.291Z,5.50
2023-05-19T13:00:14.167Z,5.00
2023-05-19T13:03:05.974Z,4.90
2023-05-19T13:05:38.078Z,5.50
2023-05-19T13:08:07.865Z,5.90
2023-05-19T13:10:36.504Z,6.30
2023-05-19T13:13:04.317Z,7.50
2023-05-19T13:15:34.682Z,6.90
2023-05-19T13:18:03.895Z,6.80
2023-05-19T13:20:31.408Z,5.50
2023-05-19T13:22:58.672Z,5.10
2023-05-19T13:25:26.473Z,4.70
2023-05-19T13:27:54.534Z,5.00
2023-05-19T13:30:22.085Z,4.90
2023-05-19T13:32:48.883Z,5.00
2023-05-19T13:35:16.008Z,4.40
2023-05-19T13:37:50.343Z,5.40
2023-05-19T13:40:17.723Z,5.20
2023-05-19T13:42:45.537Z,5.00
2023-05-19T13:45:12.385Z,5.40
2023-05-19T13:47:39.188Z,5.10
2023-05-19T13:50:06.666Z,5.30
2023-05-19T13:52:33.881Z,4.50
2023-05-19T13:55:00.873Z,5.30
2023-05-19T13:57:27.634Z,5.30
2023-05-19T14:00:02.409Z,5.70
2023-05-19T14:02:39.833Z,5.60
2023-05-19T14:05:07.726Z,5.00
2023-05-19T14:07:35.349Z,6.20
2023-05-19T14:10:03.926Z,5.50
2023-05-19T14:12:43.162Z,5.80
2023-05-19T14:15:17.867Z,5.70
2023-05-19T14:17:44.830Z,5.40
2023-05-19T14:20:12.148Z,5.60
2023-05-19T14:22:39.008Z,5.90
2023-05-19T14:25:06.499Z,6.10
2023-05-19T14:27:33.296Z,6.00
2023-05-19T14:30:00.230Z,5.80
2023-05-19T14:32:30.119Z,6.60
2023-05-19T14:34:57.357Z,6.70
2023-05-19T14:37:26.683Z,7.60
2023-05-19T14:39:53.750Z,6.90
2023-05-19T14:42:20.759Z,8.40
2023-05-19T14:44:47.795Z,8.50
2023-05-19T14:47:14.744Z,8.30
2023-05-19T14:49:41.696Z,8.60
2023-05-19T14:52:08.602Z,7.30
2023-05-19T14:54:35.430Z,8.20
2023-05-19T14:57:03.033Z,7.80
2023-05-19T14:59:29.937Z,7.10
2023-05-19T15:01:56.685Z,7.80
2023-05-19T15:04:23.679Z,8.80
2023-05-19T15:07:02.067Z,9.40
2023-05-19T15:09:36.540Z,8.90
2023-05-19T15:12:03.611Z,8.70
2023-05-19T15:14:31.185Z,7.50
2023-05-19T15:16:58.838Z,8.40
2023-05-19T15:19:26.508Z,11.30
2023-05-19T15:21:53.690Z,9.90
2023-05-19T15:24:20.573Z,9.40
2023-05-19T15:26:47.667Z,8.00
2023-05-19T15:29:14.603Z,7.40
2023-05-19T15:31:41.666Z,8.60
2023-05-19T15:34:08.853Z,7.10
2023-05-19T15:36:35.715Z,7.50
2023-05-19T15:39:03.925Z,6.80
2023-05-19T15:41:31.072Z,8.10
2023-05-19T15:44:00.326Z,8.60
2023-05-19T15:46:28.204Z,8.40
2023-05-19T15:48:55.392Z,8.30
2023-05-19T15:51:22.603Z,7.80
2023-05-19T15:53:49.593Z,7.10
2023-05-19T15:56:19.762Z,6.80
2023-05-19T15:58:46.604Z,5.70
2023-05-19T16:01:14.879Z,5.80
2023-05-19T16:03:41.905Z,6.10
2023-05-19T16:06:09.119Z,6.50
2023-05-19T16:08:36.549Z,9.80
2023-05-19T16:11:04.398Z,10.50
2023-05-19T16:13:33.556Z,9.50
2023-05-19T16:16:01.161Z,11.30
2023-05-19T16:18:29.571Z,8.40
2023-05-19T16:20:56.713Z,8.40
2023-05-19T16:23:24.805Z,8.90
2023-05-19T16:25:51.722Z,9.30
2023-05-19T16:28:18.544Z,9.20
2023-05-19T16:30:46.245Z,9.90
2023-05-19T16:33:13.216Z,12.70
2023-05-19T16:35:40.057Z,8.40
2023-05-19T16:38:06.849Z,9.50
2023-05-19T16:40:34.246Z,7.60
2023-05-19T16:43:01.349Z,7.30
2023-05-19T16:45:28.370Z,7.90
2023-05-19T16:47:55.515Z,7.10
2023-05-19T16:50:22.441Z,7.20
2023-05-19T16:52:49.277Z,6.50
2023-05-19T16:55:19.815Z,6.90
2023-05-19T16:57:47.289Z,7.20
2023-05-19T17:00:14.992Z,6.70
2023-05-19T17:02:42.252Z,6.60
2023-05-19T17:05:09.821Z,6.80
2023-05-19T17:07:36.690Z,6.20
2023-05-19T17:10:03.764Z,6.70
2023-05-19T17:12:30.629Z,7.10
2023-05-19T17:14:57.515Z,6.70
2023-05-19T17:17:24.321Z,6.90
2023-05-19T17:19:51.092Z,7.00
2023-05-19T17:22:17.982Z,7.50
2023-05-19T17:24:45.279Z,6.40
2023-05-19T17:27:12.084Z,8.40
2023-05-19T17:29:38.836Z,7.80
2023-05-19T17:32:05.862Z,7.40
2023-05-19T17:34:32.674Z,6.50
2023-05-19T17:36:59.543Z,7.90
2023-05-19T17:39:26.994Z,8.70
2023-05-19T17:42:01.111Z,7.00
2023-05-19T17:45:20.809Z,7.50
2023-05-19T17:47:47.853Z,7.50
2023-05-19T17:50:14.719Z,6.50
2023-05-19T17:52:42.061Z,6.10
2023-05-19T17:55:09.690Z,6.70
2023-05-19T17:57:40.247Z,6.10
2023-05-19T18:00:07.835Z,6.70
2023-05-19T18:02:35.534Z,6.90
2023-05-19T18:05:03.173Z,6.40
2023-05-19T18:07:32.740Z,7.30
2023-05-19T18:10:01.340Z,7.20
2023-05-19T18:12:28.112Z,6.90
2023-05-19T18:14:54.875Z,6.90
2023-05-19T18:17:21.940Z,7.30
2023-05-19T18:19:49.525Z,6.90
2023-05-19T18:22:17.687Z,7.80
2023-05-19T18:24:44.564Z,7.40
2023-05-19T18:27:11.366Z,6.80
2023-05-19T18:29:38.497Z,8.00
2023-05-19T18:32:06.934Z,7.80
2023-05-19T18:34:33.951Z,7.60
2023-05-19T18:37:00.795Z,8.10
2023-05-19T18:39:29.242Z,8.30
2023-05-19T18:41:56.327Z,7.60
2023-05-19T18:44:23.224Z,9.50
2023-05-19T18:46:50.041Z,7.70
2023-05-19T18:49:17.279Z,8.30
2023-05-19T18:51:44.156Z,8.40
2023-05-19T18:54:12.449Z,8.10
2023-05-19T18:56:39.361Z,7.70
2023-05-19T18:59:06.386Z,9.30
2023-05-19T19:01:33.263Z,7.40
2023-05-19T19:04:00.911Z,7.90
2023-05-19T19:06:28.128Z,7.10
2023-05-19T19:08:54.899Z,8.40
2023-05-19T19:11:37.250Z,7.80
2023-05-19T19:14:04.237Z,7.90
2023-05-19T19:16:31.205Z,7.80
2023-05-19T19:18:58.203Z,8.20
2023-05-19T19:21:25.867Z,8.30
2023-05-19T19:23:54.831Z,8.60
2023-05-19T19:26:25.116Z,8.40
2023-05-19T19:28:51.952Z,9.00
2023-05-19T19:31:18.855Z,7.90
2023-05-19T19:33:45.880Z,8.60
2023-05-19T19:36:12.776Z,8.60
2023-05-19T19:38:39.770Z,8.30
2023-05-19T19:41:06.655Z,6.90
2023-05-19T19:43:33.755Z,7.10
2023-05-19T19:46:02.696Z,7.60
2023-05-19T19:48:29.898Z,7.40
2023-05-19T19:50:58.533Z,7.80
2023-05-19T19:53:25.498Z,7.40
2023-05-19T19:55:57.812Z,7.70
2023-05-19T19:58:24.969Z,7.40
2023-05-19T20:01:00.739Z,7.40
2023-05-19T20:03:27.932Z,8.30
2023-05-19T20:05:56.689Z,8.10
2023-05-19T20:08:24.636Z,8.40
2023-05-19T20:10:51.779Z,9.20
2023-05-19T20:13:19.306Z,8.10
2023-05-19T20:15:46.874Z,9.20
2023-05-19T20:18:13.896Z,10.00
2023-05-19T20:20:41.554Z,10.50
2023-05-19T20:23:09.086Z,10.90
2023-05-19T20:25:54.435Z,10.40
2023-05-19T20:28:28.707Z,11.80
2023-05-19T20:30:55.592Z,11.90
2023-05-19T20:33:22.425Z,11.00
2023-05-19T20:35:49.238Z,11.00
2023-05-19T20:38:16.125Z,10.90
2023-05-19T20:40:42.941Z,10.40
2023-05-19T20:43:09.843Z,11.50
2023-05-19T20:45:36.793Z,11.90
2023-05-19T20:48:04.309Z,12.30
2023-05-19T20:50:32.214Z,13.30
2023-05-19T20:52:59.189Z,14.60
2023-05-19T20:55:26.078Z,12.00
2023-05-19T20:57:52.898Z,12.20
2023-05-19T21:00:19.986Z,11.30
2023-05-19T21:02:46.879Z,12.00
2023-05-19T21:05:13.821Z,11.50
2023-05-19T21:07:40.673Z,8.50
2023-05-19T21:10:10.431Z,10.20
2023-05-19T21:12:37.262Z,10.80
2023-05-19T21:15:06.022Z,11.00
2023-05-19T21:17:32.965Z,10.80
2023-05-19T21:20:00.493Z,10.60
2023-05-19T21:22:27.532Z,10.40
2023-05-19T21:24:54.760Z,10.90
2023-05-19T21:27:21.969Z,9.10
2023-05-19T21:29:53.368Z,10.70
2023-05-19T21:32:21.116Z,10.90
2023-05-19T21:34:48.065Z,10.70
2023-05-19T21:37:17.353Z,10.30
2023-05-19T21:39:44.671Z,10.00
2023-05-19T21:42:13.820Z,12.30
2023-05-19T21:44:40.870Z,11.40
2023-05-19T21:47:07.679Z,11.70
2023-05-19T21:49:34.704Z,11.00
2023-05-19T21:52:01.505Z,11.10
2023-05-19T21:54:28.323Z,11.50
2023-05-19T21:56:55.169Z,10.80
2023-05-19T21:59:24.746Z,11.90
2023-05-19T22:01:52.373Z,11.50
2023-05-19T22:04:21.260Z,11.70
2023-05-19T22:06:48.102Z,9.70
2023-05-19T22:09:14.886Z,9.90
2023-05-19T22:11:41.836Z,13.00
2023-05-19T22:14:08.725Z,13.20
2023-05-19T22:16:35.583Z,12.60
2023-05-19T22:19:02.613Z,11.20
2023-05-19T22:21:29.515Z,12.80
2023-05-19T22:23:56.279Z,12.20
2023-05-19T22:26:23.153Z,12.80
2023-05-19T22:28:50.460Z,11.90
2023-05-19T22:31:17.804Z,13.50
2023-05-19T22:33:44.733Z,13.20
2023-05-19T22:36:11.738Z,12.80
2023-05-19T22:38:38.574Z,12.90
2023-05-19T22:41:05.610Z,13.30
2023-05-19T22:43:32.506Z,13.70
2023-05-19T22:45:59.391Z,13.60
2023-05-19T22:48:26.411Z,14.60
2023-05-19T22:50:53.326Z,14.30
2023-05-19T22:53:20.150Z,13.60
2023-05-19T22:55:47.116Z,12.70
2023-05-19T22:58:13.867Z,14.20
2023-05-19T23:00:40.722Z,13.20
2023-05-19T23:03:07.707Z,14.90
2023-05-19T23:05:34.840Z,13.00
2023-05-19T23:08:02.177Z,14.40
2023-05-19T23:10:29.152Z,15.40
2023-05-19T23:12:55.919Z,14.40
2023-05-19T23:15:22.701Z,14.30
2023-05-19T23:17:49.589Z,14.70
2023-05-19T23:20:16.478Z,13.80
2023-05-19T23:22:43.265Z,15.00
2023-05-19T23:25:10.164Z,14.50
2023-05-19T23:27:36.999Z,15.60
2023-05-19T23:30:04.494Z,15.50
2023-05-19T23:32:31.398Z,14.50
2023-05-19T23:34:58.151Z,15.60
2023-05-19T23:37:24.939Z,15.10
2023-05-19T23:39:51.851Z,14.30
2023-05-19T23:42:18.644Z,14.40
2023-05-19T23:44:45.630Z,13.90
2023-05-19T23:47:12.615Z,15.00
2023-05-19T23:49:39.380Z,15.30
2023-05-19T23:52:06.708Z,13.80
2023-05-19T23:54:33.510Z,14.10
2023-05-19T23:57:02.189Z,15.10
2023-05-19T23:59:28.975Z,13.50
